sensor_id;sensor_type;location;lat;lon;timestamp;P1;durP1;ratioP1;P2;durP2;ratioP2
41259;SDS011;26993;48.958;9.330;2022-12-13T00:01:52;49.20;;;20.73;;
41259;SDS011;26993;48.958;9.330;2022-12-13T00:04:39;46.63;;;21.07;;
41259;SDS011;26993;48.958;9.330;2022-12-13T00:07:26;47.27;;;20.70;;
41259;SDS011;26993;48.958;9.330;2022-12-13T00:10:12;49.17;;;21.40;;
41259;SDS011;26993;48.958;9.330;2022-12-13T00:12:59;47.30;;;19.93;;
41259;SDS011;26993;48.958;9.330;2022-12-13T00:15:55;46.23;;;19.43;;
41259;SDS011;26993;48.958;9.330;2022-12-13T00:18:42;44.83;;;19.90;;
41259;SDS011;26993;48.958;9.330;2022-12-13T00:21:32;45.00;;;20.23;;
41259;SDS011;26993;48.958;9.330;2022-12-13T00:24:19;52.87;;;20.87;;
41259;SDS011;26993;48.958;9.330;2022-12-13T00:27:05;44.47;;;19.43;;
41259;SDS011;26993;48.958;9.330;2022-12-13T00:29:52;43.93;;;18.70;;
41259;SDS011;26993;48.958;9.330;2022-12-13T00:32:40;46.23;;;19.37;;
41259;SDS011;26993;48.958;9.330;2022-12-13T00:35:27;43.40;;;19.30;;
41259;SDS011;26993;48.958;9.330;2022-12-13T00:38:13;50.10;;;19.73;;
41259;SDS011;26993;48.958;9.330;2022-12-13T00:41:08;41.90;;;18.77;;
41259;SDS011;26993;48.958;9.330;2022-12-13T00:43:55;45.37;;;20.27;;
41259;SDS011;26993;48.958;9.330;2022-12-13T00:46:42;46.50;;;19.30;;
41259;SDS011;26993;48.958;9.330;2022-12-13T00:49:30;41.40;;;18.67;;
41259;SDS011;26993;48.958;9.330;2022-12-13T00:52:17;48.73;;;19.37;;
41259;SDS011;26993;48.958;9.330;2022-12-13T00:55:04;38.20;;;17.07;;
41259;SDS011;26993;48.958;9.330;2022-12-13T00:57:51;43.27;;;18.73;;
41259;SDS011;26993;48.958;9.330;2022-12-13T01:00:38;48.37;;;20.67;;
41259;SDS011;26993;48.958;9.330;2022-12-13T01:03:25;46.00;;;19.23;;
41259;SDS011;26993;48.958;9.330;2022-12-13T01:06:14;47.30;;;19.60;;
41259;SDS011;26993;48.958;9.330;2022-12-13T01:09:03;41.17;;;18.03;;
41259;SDS011;26993;48.958;9.330;2022-12-13T01:11:54;41.07;;;19.07;;
41259;SDS011;26993;48.958;9.330;2022-12-13T01:14:42;41.90;;;18.77;;
41259;SDS011;26993;48.958;9.330;2022-12-13T01:17:29;47.00;;;18.73;;
41259;SDS011;26993;48.958;9.330;2022-12-13T01:20:15;45.03;;;18.83;;
41259;SDS011;26993;48.958;9.330;2022-12-13T01:23:04;47.10;;;18.67;;
41259;SDS011;26993;48.958;9.330;2022-12-13T01:25:52;47.70;;;19.47;;
41259;SDS011;26993;48.958;9.330;2022-12-13T01:28:39;43.73;;;18.97;;
41259;SDS011;26993;48.958;9.330;2022-12-13T01:31:26;47.70;;;19.87;;
41259;SDS011;26993;48.958;9.330;2022-12-13T01:34:13;41.40;;;17.63;;
41259;SDS011;26993;48.958;9.330;2022-12-13T01:37:01;42.70;;;18.60;;
41259;SDS011;26993;48.958;9.330;2022-12-13T01:39:50;47.43;;;20.37;;
41259;SDS011;26993;48.958;9.330;2022-12-13T01:42:36;44.03;;;19.27;;
41259;SDS011;26993;48.958;9.330;2022-12-13T01:45:24;47.33;;;20.13;;
41259;SDS011;26993;48.958;9.330;2022-12-13T01:48:12;46.93;;;18.83;;
41259;SDS011;26993;48.958;9.330;2022-12-13T01:51:02;46.50;;;19.23;;
41259;SDS011;26993;48.958;9.330;2022-12-13T01:53:52;47.50;;;19.47;;
41259;SDS011;26993;48.958;9.330;2022-12-13T01:56:46;44.17;;;19.30;;
41259;SDS011;26993;48.958;9.330;2022-12-13T01:59:36;41.50;;;18.00;;
41259;SDS011;26993;48.958;9.330;2022-12-13T02:02:24;47.67;;;18.77;;
41259;SDS011;26993;48.958;9.330;2022-12-13T02:05:12;41.17;;;18.50;;
41259;SDS011;26993;48.958;9.330;2022-12-13T02:08:03;44.33;;;19.23;;
41259;SDS011;26993;48.958;9.330;2022-12-13T02:10:53;43.73;;;19.10;;
41259;SDS011;26993;48.958;9.330;2022-12-13T02:13:41;45.27;;;19.43;;
41259;SDS011;26993;48.958;9.330;2022-12-13T02:16:33;42.97;;;18.17;;
41259;SDS011;26993;48.958;9.330;2022-12-13T02:22:59;45.13;;;18.90;;
41259;SDS011;26993;48.958;9.330;2022-12-13T02:26:12;44.53;;;18.50;;
41259;SDS011;26993;48.958;9.330;2022-12-13T02:29:22;44.83;;;19.13;;
41259;SDS011;26993;48.958;9.330;2022-12-13T02:32:40;46.57;;;19.50;;
41259;SDS011;26993;48.958;9.330;2022-12-13T02:35:37;42.23;;;18.33;;
41259;SDS011;26993;48.958;9.330;2022-12-13T02:38:28;47.73;;;19.37;;
41259;SDS011;26993;48.958;9.330;2022-12-13T02:41:23;47.77;;;20.30;;
41259;SDS011;26993;48.958;9.330;2022-12-13T02:44:18;50.77;;;21.80;;
41259;SDS011;26993;48.958;9.330;2022-12-13T02:47:10;44.00;;;19.70;;
41259;SDS011;26993;48.958;9.330;2022-12-13T02:50:03;49.03;;;21.07;;
41259;SDS011;26993;48.958;9.330;2022-12-13T02:52:52;43.03;;;19.07;;
41259;SDS011;26993;48.958;9.330;2022-12-13T02:55:40;47.07;;;19.87;;
41259;SDS011;26993;48.958;9.330;2022-12-13T02:58:27;43.83;;;19.40;;
41259;SDS011;26993;48.958;9.330;2022-12-13T03:01:20;47.77;;;21.07;;
41259;SDS011;26993;48.958;9.330;2022-12-13T03:04:29;46.40;;;19.87;;
41259;SDS011;26993;48.958;9.330;2022-12-13T03:07:47;49.40;;;20.93;;
41259;SDS011;26993;48.958;9.330;2022-12-13T03:10:47;48.77;;;19.63;;
41259;SDS011;26993;48.958;9.330;2022-12-13T03:13:44;50.20;;;19.53;;
41259;SDS011;26993;48.958;9.330;2022-12-13T03:16:35;43.67;;;20.00;;
41259;SDS011;26993;48.958;9.330;2022-12-13T03:19:25;44.03;;;19.80;;
41259;SDS011;26993;48.958;9.330;2022-12-13T03:22:12;45.43;;;19.27;;
41259;SDS011;26993;48.958;9.330;2022-12-13T03:25:00;44.93;;;19.87;;
41259;SDS011;26993;48.958;9.330;2022-12-13T03:27:46;45.33;;;19.57;;
41259;SDS011;26993;48.958;9.330;2022-12-13T03:30:33;44.63;;;18.90;;
41259;SDS011;26993;48.958;9.330;2022-12-13T03:33:21;46.07;;;19.63;;
41259;SDS011;26993;48.958;9.330;2022-12-13T03:36:07;46.57;;;21.13;;
41259;SDS011;26993;48.958;9.330;2022-12-13T03:38:55;49.23;;;20.10;;
41259;SDS011;26993;48.958;9.330;2022-12-13T03:41:43;45.33;;;19.70;;
41259;SDS011;26993;48.958;9.330;2022-12-13T03:44:30;44.30;;;20.30;;
41259;SDS011;26993;48.958;9.330;2022-12-13T03:47:17;45.70;;;19.67;;
41259;SDS011;26993;48.958;9.330;2022-12-13T03:50:04;42.00;;;18.70;;
41259;SDS011;26993;48.958;9.330;2022-12-13T03:52:56;47.33;;;19.83;;
41259;SDS011;26993;48.958;9.330;2022-12-13T03:55:43;44.03;;;19.83;;
41259;SDS011;26993;48.958;9.330;2022-12-13T03:58:33;49.53;;;20.00;;
41259;SDS011;26993;48.958;9.330;2022-12-13T04:01:20;43.17;;;19.37;;
41259;SDS011;26993;48.958;9.330;2022-12-13T04:04:07;44.40;;;19.23;;
41259;SDS011;26993;48.958;9.330;2022-12-13T04:06:54;42.00;;;18.10;;
41259;SDS011;26993;48.958;9.330;2022-12-13T04:09:40;39.23;;;18.63;;
41259;SDS011;26993;48.958;9.330;2022-12-13T04:12:27;46.63;;;18.03;;
41259;SDS011;26993;48.958;9.330;2022-12-13T04:15:32;41.13;;;18.50;;
41259;SDS011;26993;48.958;9.330;2022-12-13T04:18:19;40.83;;;18.17;;
41259;SDS011;26993;48.958;9.330;2022-12-13T04:21:06;41.30;;;18.33;;
41259;SDS011;26993;48.958;9.330;2022-12-13T04:23:53;46.30;;;18.47;;
41259;SDS011;26993;48.958;9.330;2022-12-13T04:26:39;41.93;;;18.63;;
41259;SDS011;26993;48.958;9.330;2022-12-13T04:29:26;40.97;;;18.40;;
41259;SDS011;26993;48.958;9.330;2022-12-13T04:32:14;39.37;;;17.90;;
41259;SDS011;26993;48.958;9.330;2022-12-13T04:35:01;39.93;;;17.30;;
41259;SDS011;26993;48.958;9.330;2022-12-13T04:37:48;42.13;;;17.83;;
41259;SDS011;26993;48.958;9.330;2022-12-13T04:40:34;39.27;;;17.53;;
41259;SDS011;26993;48.958;9.330;2022-12-13T04:43:21;39.73;;;17.77;;
41259;SDS011;26993;48.958;9.330;2022-12-13T04:46:08;40.07;;;17.07;;
41259;SDS011;26993;48.958;9.330;2022-12-13T04:48:56;39.73;;;16.50;;
41259;SDS011;26993;48.958;9.330;2022-12-13T04:51:42;44.73;;;17.53;;
41259;SDS011;26993;48.958;9.330;2022-12-13T04:54:29;39.10;;;17.37;;
41259;SDS011;26993;48.958;9.330;2022-12-13T04:57:16;37.83;;;17.00;;
41259;SDS011;26993;48.958;9.330;2022-12-13T05:00:03;36.77;;;16.40;;
41259;SDS011;26993;48.958;9.330;2022-12-13T05:02:51;36.53;;;17.33;;
41259;SDS011;26993;48.958;9.330;2022-12-13T05:05:39;33.17;;;15.43;;
41259;SDS011;26993;48.958;9.330;2022-12-13T05:08:26;38.67;;;16.37;;
41259;SDS011;26993;48.958;9.330;2022-12-13T05:11:13;39.03;;;17.23;;
41259;SDS011;26993;48.958;9.330;2022-12-13T05:13:59;36.67;;;15.20;;
41259;SDS011;26993;48.958;9.330;2022-12-13T05:16:46;33.63;;;14.87;;
41259;SDS011;26993;48.958;9.330;2022-12-13T05:19:33;37.60;;;16.20;;
41259;SDS011;26993;48.958;9.330;2022-12-13T05:22:21;33.53;;;14.77;;
41259;SDS011;26993;48.958;9.330;2022-12-13T05:25:07;34.77;;;15.20;;
41259;SDS011;26993;48.958;9.330;2022-12-13T05:27:54;35.47;;;15.80;;
41259;SDS011;26993;48.958;9.330;2022-12-13T05:30:42;37.30;;;15.00;;
41259;SDS011;26993;48.958;9.330;2022-12-13T05:33:29;39.40;;;17.17;;
41259;SDS011;26993;48.958;9.330;2022-12-13T05:36:16;37.20;;;16.00;;
41259;SDS011;26993;48.958;9.330;2022-12-13T05:39:04;32.43;;;14.67;;
41259;SDS011;26993;48.958;9.330;2022-12-13T05:41:51;34.97;;;15.80;;
41259;SDS011;26993;48.958;9.330;2022-12-13T05:44:39;34.13;;;15.47;;
41259;SDS011;26993;48.958;9.330;2022-12-13T05:47:26;33.30;;;15.13;;
41259;SDS011;26993;48.958;9.330;2022-12-13T05:50:15;31.67;;;14.53;;
41259;SDS011;26993;48.958;9.330;2022-12-13T05:53:02;34.30;;;15.27;;
41259;SDS011;26993;48.958;9.330;2022-12-13T05:55:51;33.37;;;14.90;;
41259;SDS011;26993;48.958;9.330;2022-12-13T05:58:38;30.70;;;14.93;;
41259;SDS011;26993;48.958;9.330;2022-12-13T06:01:25;40.17;;;15.77;;
41259;SDS011;26993;48.958;9.330;2022-12-13T06:04:12;35.17;;;15.60;;
41259;SDS011;26993;48.958;9.330;2022-12-13T06:06:59;38.83;;;15.97;;
41259;SDS011;26993;48.958;9.330;2022-12-13T06:09:46;32.20;;;14.77;;
41259;SDS011;26993;48.958;9.330;2022-12-13T06:12:34;34.53;;;15.53;;
41259;SDS011;26993;48.958;9.330;2022-12-13T06:15:21;37.50;;;16.23;;
41259;SDS011;26993;48.958;9.330;2022-12-13T06:18:08;40.27;;;16.43;;
41259;SDS011;26993;48.958;9.330;2022-12-13T06:20:55;34.50;;;15.20;;
41259;SDS011;26993;48.958;9.330;2022-12-13T06:23:42;35.80;;;14.80;;
41259;SDS011;26993;48.958;9.330;2022-12-13T06:26:29;31.53;;;15.17;;
41259;SDS011;26993;48.958;9.330;2022-12-13T06:29:18;33.97;;;15.67;;
41259;SDS011;26993;48.958;9.330;2022-12-13T06:32:05;34.63;;;15.40;;
41259;SDS011;26993;48.958;9.330;2022-12-13T06:34:52;36.07;;;14.93;;
41259;SDS011;26993;48.958;9.330;2022-12-13T06:37:39;35.57;;;15.53;;
41259;SDS011;26993;48.958;9.330;2022-12-13T06:40:25;33.80;;;15.43;;
41259;SDS011;26993;48.958;9.330;2022-12-13T06:43:12;34.50;;;15.10;;
41259;SDS011;26993;48.958;9.330;2022-12-13T06:46:02;33.70;;;14.67;;
41259;SDS011;26993;48.958;9.330;2022-12-13T06:48:50;35.23;;;15.00;;
41259;SDS011;26993;48.958;9.330;2022-12-13T06:51:37;32.10;;;14.37;;
41259;SDS011;26993;48.958;9.330;2022-12-13T06:54:26;37.97;;;15.87;;
41259;SDS011;26993;48.958;9.330;2022-12-13T06:57:13;39.27;;;14.73;;
41259;SDS011;26993;48.958;9.330;2022-12-13T07:00:00;35.10;;;14.43;;
41259;SDS011;26993;48.958;9.330;2022-12-13T07:02:53;30.77;;;14.50;;
41259;SDS011;26993;48.958;9.330;2022-12-13T07:05:40;31.87;;;15.10;;
41259;SDS011;26993;48.958;9.330;2022-12-13T07:08:27;33.33;;;15.10;;
41259;SDS011;26993;48.958;9.330;2022-12-13T07:11:14;36.77;;;15.50;;
41259;SDS011;26993;48.958;9.330;2022-12-13T07:14:01;37.03;;;15.93;;
41259;SDS011;26993;48.958;9.330;2022-12-13T07:16:48;37.37;;;15.97;;
41259;SDS011;26993;48.958;9.330;2022-12-13T07:19:36;35.17;;;15.60;;
41259;SDS011;26993;48.958;9.330;2022-12-13T07:22:23;33.27;;;14.90;;
41259;SDS011;26993;48.958;9.330;2022-12-13T07:25:10;35.93;;;16.17;;
41259;SDS011;26993;48.958;9.330;2022-12-13T07:27:57;32.73;;;14.60;;
41259;SDS011;26993;48.958;9.330;2022-12-13T07:30:45;37.37;;;15.87;;
41259;SDS011;26993;48.958;9.330;2022-12-13T07:33:32;38.43;;;15.53;;
41259;SDS011;26993;48.958;9.330;2022-12-13T07:36:21;35.97;;;15.67;;
41259;SDS011;26993;48.958;9.330;2022-12-13T07:39:08;34.73;;;15.57;;
41259;SDS011;26993;48.958;9.330;2022-12-13T07:41:55;40.33;;;16.27;;
41259;SDS011;26993;48.958;9.330;2022-12-13T07:44:41;32.90;;;15.37;;
41259;SDS011;26993;48.958;9.330;2022-12-13T07:47:28;34.93;;;15.67;;
41259;SDS011;26993;48.958;9.330;2022-12-13T07:50:16;34.93;;;15.60;;
41259;SDS011;26993;48.958;9.330;2022-12-13T07:53:06;36.57;;;16.33;;
41259;SDS011;26993;48.958;9.330;2022-12-13T07:55:53;33.43;;;14.47;;
41259;SDS011;26993;48.958;9.330;2022-12-13T07:58:41;38.37;;;15.97;;
41259;SDS011;26993;48.958;9.330;2022-12-13T08:01:30;36.63;;;15.73;;
41259;SDS011;26993;48.958;9.330;2022-12-13T08:04:18;32.43;;;14.17;;
41259;SDS011;26993;48.958;9.330;2022-12-13T08:07:05;36.23;;;15.83;;
41259;SDS011;26993;48.958;9.330;2022-12-13T08:09:54;31.47;;;14.17;;
41259;SDS011;26993;48.958;9.330;2022-12-13T08:12:40;32.00;;;13.73;;
41259;SDS011;26993;48.958;9.330;2022-12-13T08:15:27;30.50;;;14.03;;
41259;SDS011;26993;48.958;9.330;2022-12-13T08:18:14;33.10;;;14.13;;
41259;SDS011;26993;48.958;9.330;2022-12-13T08:21:02;33.90;;;14.33;;
41259;SDS011;26993;48.958;9.330;2022-12-13T08:23:50;32.37;;;14.10;;
41259;SDS011;26993;48.958;9.330;2022-12-13T08:26:38;32.83;;;14.33;;
41259;SDS011;26993;48.958;9.330;2022-12-13T08:29:24;28.30;;;13.90;;
41259;SDS011;26993;48.958;9.330;2022-12-13T08:32:11;33.70;;;14.40;;
41259;SDS011;26993;48.958;9.330;2022-12-13T08:34:58;30.90;;;13.37;;
41259;SDS011;26993;48.958;9.330;2022-12-13T08:37:45;34.20;;;14.53;;
41259;SDS011;26993;48.958;9.330;2022-12-13T08:40:31;31.73;;;14.43;;
41259;SDS011;26993;48.958;9.330;2022-12-13T08:43:20;34.53;;;14.07;;
41259;SDS011;26993;48.958;9.330;2022-12-13T08:46:06;38.53;;;15.20;;
41259;SDS011;26993;48.958;9.330;2022-12-13T08:48:53;33.03;;;14.67;;
41259;SDS011;26993;48.958;9.330;2022-12-13T08:51:40;32.50;;;14.37;;
41259;SDS011;26993;48.958;9.330;2022-12-13T08:54:26;35.63;;;14.60;;
41259;SDS011;26993;48.958;9.330;2022-12-13T08:57:13;32.93;;;14.23;;
41259;SDS011;26993;48.958;9.330;2022-12-13T09:00:02;29.93;;;13.30;;
41259;SDS011;26993;48.958;9.330;2022-12-13T09:02:49;30.17;;;14.03;;
41259;SDS011;26993;48.958;9.330;2022-12-13T09:05:35;33.33;;;14.10;;
41259;SDS011;26993;48.958;9.330;2022-12-13T09:08:22;31.47;;;14.03;;
41259;SDS011;26993;48.958;9.330;2022-12-13T09:11:09;31.70;;;13.27;;
41259;SDS011;26993;48.958;9.330;2022-12-13T09:13:57;32.13;;;14.27;;
41259;SDS011;26993;48.958;9.330;2022-12-13T09:16:45;32.67;;;13.77;;
41259;SDS011;26993;48.958;9.330;2022-12-13T09:19:31;32.70;;;13.30;;
41259;SDS011;26993;48.958;9.330;2022-12-13T09:22:18;33.03;;;13.57;;
41259;SDS011;26993;48.958;9.330;2022-12-13T09:25:05;29.07;;;13.20;;
41259;SDS011;26993;48.958;9.330;2022-12-13T09:27:53;28.97;;;13.37;;
41259;SDS011;26993;48.958;9.330;2022-12-13T09:30:39;31.60;;;13.53;;
41259;SDS011;26993;48.958;9.330;2022-12-13T09:33:28;30.07;;;13.20;;
41259;SDS011;26993;48.958;9.330;2022-12-13T09:36:15;30.43;;;13.10;;
41259;SDS011;26993;48.958;9.330;2022-12-13T09:39:04;30.60;;;13.27;;
41259;SDS011;26993;48.958;9.330;2022-12-13T09:41:51;31.60;;;12.73;;
41259;SDS011;26993;48.958;9.330;2022-12-13T09:44:41;29.17;;;13.03;;
41259;SDS011;26993;48.958;9.330;2022-12-13T09:47:35;29.97;;;12.73;;
41259;SDS011;26993;48.958;9.330;2022-12-13T09:50:26;28.77;;;12.30;;
41259;SDS011;26993;48.958;9.330;2022-12-13T09:53:15;27.67;;;11.80;;
41259;SDS011;26993;48.958;9.330;2022-12-13T09:56:03;27.53;;;12.33;;
41259;SDS011;26993;48.958;9.330;2022-12-13T09:58:51;27.83;;;12.23;;
41259;SDS011;26993;48.958;9.330;2022-12-13T10:01:40;26.63;;;12.13;;
41259;SDS011;26993;48.958;9.330;2022-12-13T10:04:26;29.57;;;12.60;;
41259;SDS011;26993;48.958;9.330;2022-12-13T10:07:16;25.47;;;12.20;;
41259;SDS011;26993;48.958;9.330;2022-12-13T10:10:05;26.00;;;12.00;;
41259;SDS011;26993;48.958;9.330;2022-12-13T10:12:53;27.00;;;12.17;;
41259;SDS011;26993;48.958;9.330;2022-12-13T10:15:45;28.03;;;12.97;;
41259;SDS011;26993;48.958;9.330;2022-12-13T10:18:35;28.53;;;12.53;;
41259;SDS011;26993;48.958;9.330;2022-12-13T10:21:23;26.03;;;11.53;;
41259;SDS011;26993;48.958;9.330;2022-12-13T10:24:15;25.93;;;11.73;;
41259;SDS011;26993;48.958;9.330;2022-12-13T10:27:12;26.53;;;12.73;;
41259;SDS011;26993;48.958;9.330;2022-12-13T10:30:01;27.00;;;11.80;;
41259;SDS011;26993;48.958;9.330;2022-12-13T10:32:51;27.87;;;12.00;;
41259;SDS011;26993;48.958;9.330;2022-12-13T10:35:40;27.43;;;11.83;;
41259;SDS011;26993;48.958;9.330;2022-12-13T10:38:27;27.87;;;12.87;;
41259;SDS011;26993;48.958;9.330;2022-12-13T10:41:28;27.50;;;11.83;;
41259;SDS011;26993;48.958;9.330;2022-12-13T10:44:19;23.00;;;11.17;;
41259;SDS011;26993;48.958;9.330;2022-12-13T10:47:12;26.57;;;11.73;;
41259;SDS011;26993;48.958;9.330;2022-12-13T10:50:02;24.50;;;11.73;;
41259;SDS011;26993;48.958;9.330;2022-12-13T10:52:49;27.07;;;12.23;;
41259;SDS011;26993;48.958;9.330;2022-12-13T10:55:36;27.13;;;12.03;;
41259;SDS011;26993;48.958;9.330;2022-12-13T10:58:24;26.17;;;11.67;;
41259;SDS011;26993;48.958;9.330;2022-12-13T11:01:21;20.90;;;10.30;;
41259;SDS011;26993;48.958;9.330;2022-12-13T11:04:18;26.30;;;12.07;;
41259;SDS011;26993;48.958;9.330;2022-12-13T11:07:20;25.70;;;10.97;;
41259;SDS011;26993;48.958;9.330;2022-12-13T11:10:14;25.80;;;11.33;;
41259;SDS011;26993;48.958;9.330;2022-12-13T11:13:04;27.63;;;11.57;;
41259;SDS011;26993;48.958;9.330;2022-12-13T11:15:54;25.30;;;11.93;;
41259;SDS011;26993;48.958;9.330;2022-12-13T11:18:41;25.03;;;10.80;;
41259;SDS011;26993;48.958;9.330;2022-12-13T11:21:29;25.33;;;11.23;;
41259;SDS011;26993;48.958;9.330;2022-12-13T11:24:19;25.90;;;10.60;;
41259;SDS011;26993;48.958;9.330;2022-12-13T11:27:14;25.07;;;11.20;;
41259;SDS011;26993;48.958;9.330;2022-12-13T11:30:16;21.90;;;10.03;;
41259;SDS011;26993;48.958;9.330;2022-12-13T11:33:12;23.07;;;10.47;;
41259;SDS011;26993;48.958;9.330;2022-12-13T11:36:07;21.47;;;10.13;;
41259;SDS011;26993;48.958;9.330;2022-12-13T11:39:08;24.27;;;10.80;;
41259;SDS011;26993;48.958;9.330;2022-12-13T11:42:03;23.57;;;11.40;;
41259;SDS011;26993;48.958;9.330;2022-12-13T11:44:58;24.07;;;11.23;;
41259;SDS011;26993;48.958;9.330;2022-12-13T11:47:48;22.20;;;10.13;;
41259;SDS011;26993;48.958;9.330;2022-12-13T11:50:43;25.53;;;11.20;;
41259;SDS011;26993;48.958;9.330;2022-12-13T11:53:33;25.23;;;11.43;;
41259;SDS011;26993;48.958;9.330;2022-12-13T11:56:25;24.23;;;10.17;;
41259;SDS011;26993;48.958;9.330;2022-12-13T11:59:19;23.57;;;11.40;;
41259;SDS011;26993;48.958;9.330;2022-12-13T12:02:14;22.27;;;10.67;;
41259;SDS011;26993;48.958;9.330;2022-12-13T12:05:05;23.80;;;10.57;;
41259;SDS011;26993;48.958;9.330;2022-12-13T12:08:05;21.87;;;10.50;;
41259;SDS011;26993;48.958;9.330;2022-12-13T12:11:01;20.87;;;10.37;;
41259;SDS011;26993;48.958;9.330;2022-12-13T12:13:53;21.67;;;9.67;;
41259;SDS011;26993;48.958;9.330;2022-12-13T12:16:46;21.30;;;10.57;;
41259;SDS011;26993;48.958;9.330;2022-12-13T12:19:38;21.53;;;10.67;;
41259;SDS011;26993;48.958;9.330;2022-12-13T12:22:32;21.40;;;10.13;;
41259;SDS011;26993;48.958;9.330;2022-12-13T12:25:28;22.70;;;11.10;;
41259;SDS011;26993;48.958;9.330;2022-12-13T12:28:24;25.97;;;10.80;;
41259;SDS011;26993;48.958;9.330;2022-12-13T12:31:25;20.80;;;10.53;;
41259;SDS011;26993;48.958;9.330;2022-12-13T12:34:18;24.40;;;10.77;;
41259;SDS011;26993;48.958;9.330;2022-12-13T12:37:16;21.83;;;10.83;;
41259;SDS011;26993;48.958;9.330;2022-12-13T12:40:36;21.73;;;10.13;;
41259;SDS011;26993;48.958;9.330;2022-12-13T12:43:35;22.70;;;10.23;;
41259;SDS011;26993;48.958;9.330;2022-12-13T12:46:31;21.93;;;10.43;;
41259;SDS011;26993;48.958;9.330;2022-12-13T12:52:58;20.80;;;11.20;;
41259;SDS011;26993;48.958;9.330;2022-12-13T12:56:00;26.03;;;10.77;;
41259;SDS011;26993;48.958;9.330;2022-12-13T12:58:58;21.87;;;10.53;;
41259;SDS011;26993;48.958;9.330;2022-12-13T13:01:52;22.87;;;11.00;;
41259;SDS011;26993;48.958;9.330;2022-12-13T13:04:45;21.30;;;10.17;;
41259;SDS011;26993;48.958;9.330;2022-12-13T13:07:37;21.47;;;10.67;;
41259;SDS011;26993;48.958;9.330;2022-12-13T13:10:29;21.13;;;10.17;;
41259;SDS011;26993;48.958;9.330;2022-12-13T13:13:34;25.87;;;10.20;;
41259;SDS011;26993;48.958;9.330;2022-12-13T13:16:27;19.23;;;10.37;;
41259;SDS011;26993;48.958;9.330;2022-12-13T13:22:31;20.83;;;10.00;;
41259;SDS011;26993;48.958;9.330;2022-12-13T13:25:24;20.40;;;9.97;;
41259;SDS011;26993;48.958;9.330;2022-12-13T13:28:15;22.37;;;10.60;;
41259;SDS011;26993;48.958;9.330;2022-12-13T13:31:05;22.03;;;9.90;;
41259;SDS011;26993;48.958;9.330;2022-12-13T13:33:53;23.63;;;11.30;;
41259;SDS011;26993;48.958;9.330;2022-12-13T13:36:44;23.53;;;10.07;;
41259;SDS011;26993;48.958;9.330;2022-12-13T13:39:52;23.37;;;10.13;;
41259;SDS011;26993;48.958;9.330;2022-12-13T13:43:00;23.87;;;10.30;;
41259;SDS011;26993;48.958;9.330;2022-12-13T13:45:52;21.83;;;10.67;;
41259;SDS011;26993;48.958;9.330;2022-12-13T13:48:49;22.53;;;10.60;;
41259;SDS011;26993;48.958;9.330;2022-12-13T13:51:51;24.83;;;11.03;;
41259;SDS011;26993;48.958;9.330;2022-12-13T13:54:58;22.30;;;10.23;;
41259;SDS011;26993;48.958;9.330;2022-12-13T13:58:14;21.70;;;10.73;;
41259;SDS011;26993;48.958;9.330;2022-12-13T14:02:09;23.80;;;10.80;;
41259;SDS011;26993;48.958;9.330;2022-12-13T14:05:33;21.90;;;9.80;;
41259;SDS011;26993;48.958;9.330;2022-12-13T14:08:50;19.30;;;9.90;;
41259;SDS011;26993;48.958;9.330;2022-12-13T14:12:02;20.80;;;10.37;;
41259;SDS011;26993;48.958;9.330;2022-12-13T14:19:03;21.90;;;10.40;;
41259;SDS011;26993;48.958;9.330;2022-12-13T14:22:31;18.67;;;9.77;;
41259;SDS011;26993;48.958;9.330;2022-12-13T14:28:55;21.77;;;10.37;;
41259;SDS011;26993;48.958;9.330;2022-12-13T14:31:44;22.20;;;10.40;;
41259;SDS011;26993;48.958;9.330;2022-12-13T14:34:32;23.10;;;10.73;;
41259;SDS011;26993;48.958;9.330;2022-12-13T14:37:20;21.70;;;10.30;;
41259;SDS011;26993;48.958;9.330;2022-12-13T14:40:23;20.00;;;9.90;;
41259;SDS011;26993;48.958;9.330;2022-12-13T14:43:19;24.80;;;11.00;;
41259;SDS011;26993;48.958;9.330;2022-12-13T14:46:09;23.57;;;10.97;;
41259;SDS011;26993;48.958;9.330;2022-12-13T14:48:59;24.30;;;11.47;;
41259;SDS011;26993;48.958;9.330;2022-12-13T14:51:45;24.33;;;11.33;;
41259;SDS011;26993;48.958;9.330;2022-12-13T14:54:39;23.77;;;10.50;;
41259;SDS011;26993;48.958;9.330;2022-12-13T14:57:32;22.47;;;10.73;;
41259;SDS011;26993;48.958;9.330;2022-12-13T15:00:22;23.30;;;10.57;;
41259;SDS011;26993;48.958;9.330;2022-12-13T15:03:19;21.90;;;10.70;;
41259;SDS011;26993;48.958;9.330;2022-12-13T15:06:07;22.93;;;10.97;;
41259;SDS011;26993;48.958;9.330;2022-12-13T15:08:53;23.73;;;10.53;;
41259;SDS011;26993;48.958;9.330;2022-12-13T15:11:40;22.53;;;9.80;;
41259;SDS011;26993;48.958;9.330;2022-12-13T15:14:30;22.33;;;10.60;;
41259;SDS011;26993;48.958;9.330;2022-12-13T15:17:24;22.63;;;9.70;;
41259;SDS011;26993;48.958;9.330;2022-12-13T15:20:20;23.07;;;10.97;;
41259;SDS011;26993;48.958;9.330;2022-12-13T15:23:11;19.70;;;9.27;;
41259;SDS011;26993;48.958;9.330;2022-12-13T15:26:06;20.93;;;10.43;;
41259;SDS011;26993;48.958;9.330;2022-12-13T15:28:56;26.03;;;11.03;;
41259;SDS011;26993;48.958;9.330;2022-12-13T15:31:47;22.20;;;9.77;;
41259;SDS011;26993;48.958;9.330;2022-12-13T15:34:34;24.57;;;10.80;;
41259;SDS011;26993;48.958;9.330;2022-12-13T15:37:23;22.23;;;10.50;;
41259;SDS011;26993;48.958;9.330;2022-12-13T15:40:15;21.97;;;10.83;;
41259;SDS011;26993;48.958;9.330;2022-12-13T15:43:02;20.87;;;10.37;;
41259;SDS011;26993;48.958;9.330;2022-12-13T15:45:49;23.60;;;10.93;;
41259;SDS011;26993;48.958;9.330;2022-12-13T15:48:40;24.40;;;11.07;;
41259;SDS011;26993;48.958;9.330;2022-12-13T15:51:28;26.20;;;11.23;;
41259;SDS011;26993;48.958;9.330;2022-12-13T15:54:17;25.33;;;12.07;;
41259;SDS011;26993;48.958;9.330;2022-12-13T15:57:10;21.70;;;10.13;;
41259;SDS011;26993;48.958;9.330;2022-12-13T16:00:06;25.97;;;11.47;;
41259;SDS011;26993;48.958;9.330;2022-12-13T16:03:05;24.83;;;11.50;;
41259;SDS011;26993;48.958;9.330;2022-12-13T16:05:57;29.93;;;12.10;;
41259;SDS011;26993;48.958;9.330;2022-12-13T16:08:47;26.10;;;12.10;;
41259;SDS011;26993;48.958;9.330;2022-12-13T16:11:38;24.70;;;11.20;;
41259;SDS011;26993;48.958;9.330;2022-12-13T16:14:36;24.07;;;11.17;;
41259;SDS011;26993;48.958;9.330;2022-12-13T16:17:27;25.97;;;12.20;;
41259;SDS011;26993;48.958;9.330;2022-12-13T16:20:15;23.30;;;11.63;;
41259;SDS011;26993;48.958;9.330;2022-12-13T16:23:03;25.83;;;11.27;;
41259;SDS011;26993;48.958;9.330;2022-12-13T16:25:50;25.40;;;12.13;;
41259;SDS011;26993;48.958;9.330;2022-12-13T16:28:37;25.53;;;11.10;;
41259;SDS011;26993;48.958;9.330;2022-12-13T16:31:24;25.47;;;11.70;;
41259;SDS011;26993;48.958;9.330;2022-12-13T16:34:15;26.60;;;11.10;;
41259;SDS011;26993;48.958;9.330;2022-12-13T16:37:03;29.07;;;11.77;;
41259;SDS011;26993;48.958;9.330;2022-12-13T16:39:51;26.63;;;12.47;;
41259;SDS011;26993;48.958;9.330;2022-12-13T16:42:38;27.73;;;12.93;;
41259;SDS011;26993;48.958;9.330;2022-12-13T16:45:25;101.00;;;32.77;;
41259;SDS011;26993;48.958;9.330;2022-12-13T16:48:23;23.90;;;11.67;;
41259;SDS011;26993;48.958;9.330;2022-12-13T16:51:10;24.80;;;11.20;;
41259;SDS011;26993;48.958;9.330;2022-12-13T16:53:57;31.23;;;15.47;;
41259;SDS011;26993;48.958;9.330;2022-12-13T16:56:45;21.23;;;11.33;;